sensor_id;sensor_type;location;lat;lon;timestamp;P1;durP1;ratioP1;P2;durP2;ratioP2
14849;SDS011;7517;48.400;11.770;2023-02-12T00:01:18;10.80;;;8.33;;
14849;SDS011;7517;48.400;11.770;2023-02-12T00:06:25;12.83;;;9.53;;
14849;SDS011;7517;48.400;11.770;2023-02-12T00:08:54;12.23;;;9.10;;
14849;SDS011;7517;48.400;11.770;2023-02-12T00:11:23;9.53;;;7.93;;
14849;SDS011;7517;48.400;11.770;2023-02-12T00:13:53;14.63;;;8.73;;
14849;SDS011;7517;48.400;11.770;2023-02-12T00:16:22;10.00;;;8.37;;
14849;SDS011;7517;48.400;11.770;2023-02-12T00:18:53;10.03;;;8.50;;
14849;SDS011;7517;48.400;11.770;2023-02-12T00:21:22;11.30;;;8.37;;
14849;SDS011;7517;48.400;11.770;2023-02-12T00:23:50;10.23;;;7.97;;
14849;SDS011;7517;48.400;11.770;2023-02-12T00:26:19;11.27;;;8.77;;
14849;SDS011;7517;48.400;11.770;2023-02-12T00:28:47;12.60;;;9.27;;
14849;SDS011;7517;48.400;11.770;2023-02-12T00:31:15;12.77;;;8.77;;
14849;SDS011;7517;48.400;11.770;2023-02-12T00:33:47;11.57;;;8.37;;
14849;SDS011;7517;48.400;11.770;2023-02-12T00:36:16;13.43;;;8.73;;
14849;SDS011;7517;48.400;11.770;2023-02-12T00:38:46;11.60;;;8.37;;
14849;SDS011;7517;48.400;11.770;2023-02-12T00:41:14;10.73;;;8.33;;
14849;SDS011;7517;48.400;11.770;2023-02-12T00:43:41;10.97;;;8.50;;
14849;SDS011;7517;48.400;11.770;2023-02-12T00:46:08;10.57;;;8.47;;
14849;SDS011;7517;48.400;11.770;2023-02-12T00:48:36;11.53;;;8.20;;
14849;SDS011;7517;48.400;11.770;2023-02-12T00:51:06;11.67;;;8.80;;
14849;SDS011;7517;48.400;11.770;2023-02-12T00:53:40;9.63;;;7.97;;
14849;SDS011;7517;48.400;11.770;2023-02-12T00:56:16;10.93;;;8.47;;
14849;SDS011;7517;48.400;11.770;2023-02-12T00:58:56;11.67;;;8.47;;
14849;SDS011;7517;48.400;11.770;2023-02-12T01:01:28;11.77;;;8.43;;
14849;SDS011;7517;48.400;11.770;2023-02-12T01:03:57;10.37;;;8.50;;
14849;SDS011;7517;48.400;11.770;2023-02-12T01:06:27;12.37;;;9.43;;
14849;SDS011;7517;48.400;11.770;2023-02-12T01:09:00;10.23;;;8.17;;
14849;SDS011;7517;48.400;11.770;2023-02-12T01:11:29;13.30;;;9.43;;
14849;SDS011;7517;48.400;11.770;2023-02-12T01:13:59;11.63;;;8.80;;
14849;SDS011;7517;48.400;11.770;2023-02-12T01:16:31;12.60;;;9.10;;
14849;SDS011;7517;48.400;11.770;2023-02-12T01:19:00;12.97;;;8.60;;
14849;SDS011;7517;48.400;11.770;2023-02-12T01:21:30;11.13;;;8.77;;
14849;SDS011;7517;48.400;11.770;2023-02-12T01:24:01;10.97;;;8.87;;
14849;SDS011;7517;48.400;11.770;2023-02-12T01:26:30;12.53;;;9.33;;
14849;SDS011;7517;48.400;11.770;2023-02-12T01:28:58;11.90;;;9.13;;
14849;SDS011;7517;48.400;11.770;2023-02-12T01:31:29;14.70;;;10.17;;
14849;SDS011;7517;48.400;11.770;2023-02-12T01:34:04;11.40;;;8.73;;
14849;SDS011;7517;48.400;11.770;2023-02-12T01:36:33;12.00;;;9.47;;
14849;SDS011;7517;48.400;11.770;2023-02-12T01:39:02;11.53;;;9.13;;
14849;SDS011;7517;48.400;11.770;2023-02-12T01:41:32;11.50;;;9.07;;
14849;SDS011;7517;48.400;11.770;2023-02-12T01:44:13;13.10;;;9.97;;
14849;SDS011;7517;48.400;11.770;2023-02-12T01:46:45;12.63;;;9.23;;
14849;SDS011;7517;48.400;11.770;2023-02-12T01:49:16;12.63;;;9.60;;
14849;SDS011;7517;48.400;11.770;2023-02-12T01:51:51;11.93;;;9.77;;
14849;SDS011;7517;48.400;11.770;2023-02-12T01:54:28;13.60;;;9.63;;
14849;SDS011;7517;48.400;11.770;2023-02-12T01:56:59;12.63;;;9.83;;
14849;SDS011;7517;48.400;11.770;2023-02-12T01:59:31;11.90;;;9.13;;
14849;SDS011;7517;48.400;11.770;2023-02-12T02:02:01;13.97;;;9.23;;
14849;SDS011;7517;48.400;11.770;2023-02-12T02:04:31;13.97;;;9.97;;
14849;SDS011;7517;48.400;11.770;2023-02-12T02:07:06;13.50;;;8.80;;
14849;SDS011;7517;48.400;11.770;2023-02-12T02:09:38;11.93;;;9.37;;
14849;SDS011;7517;48.400;11.770;2023-02-12T02:12:07;14.27;;;10.23;;
14849;SDS011;7517;48.400;11.770;2023-02-12T02:14:55;14.10;;;10.47;;
14849;SDS011;7517;48.400;11.770;2023-02-12T02:17:44;17.03;;;10.50;;
14849;SDS011;7517;48.400;11.770;2023-02-12T02:24:15;11.30;;;9.23;;
14849;SDS011;7517;48.400;11.770;2023-02-12T02:27:39;13.20;;;8.77;;
14849;SDS011;7517;48.400;11.770;2023-02-12T02:30:38;14.73;;;9.80;;
14849;SDS011;7517;48.400;11.770;2023-02-12T02:33:14;13.10;;;10.43;;
14849;SDS011;7517;48.400;11.770;2023-02-12T02:35:58;14.73;;;10.63;;
14849;SDS011;7517;48.400;11.770;2023-02-12T02:38:44;16.37;;;10.03;;
14849;SDS011;7517;48.400;11.770;2023-02-12T02:41:21;13.83;;;10.73;;
14849;SDS011;7517;48.400;11.770;2023-02-12T02:43:56;12.67;;;10.03;;
14849;SDS011;7517;48.400;11.770;2023-02-12T02:46:29;12.70;;;10.00;;
14849;SDS011;7517;48.400;11.770;2023-02-12T02:49:02;12.83;;;9.80;;
14849;SDS011;7517;48.400;11.770;2023-02-12T02:51:33;13.90;;;10.53;;
14849;SDS011;7517;48.400;11.770;2023-02-12T02:54:07;14.80;;;11.20;;
14849;SDS011;7517;48.400;11.770;2023-02-12T02:56:40;13.93;;;10.67;;
14849;SDS011;7517;48.400;11.770;2023-02-12T02:59:13;15.37;;;10.87;;
14849;SDS011;7517;48.400;11.770;2023-02-12T03:01:50;14.67;;;10.50;;
14849;SDS011;7517;48.400;11.770;2023-02-12T03:04:23;14.77;;;10.10;;
14849;SDS011;7517;48.400;11.770;2023-02-12T03:06:59;15.13;;;10.17;;
14849;SDS011;7517;48.400;11.770;2023-02-12T03:09:35;14.97;;;10.50;;
14849;SDS011;7517;48.400;11.770;2023-02-12T03:12:10;12.03;;;9.93;;
14849;SDS011;7517;48.400;11.770;2023-02-12T03:14:45;13.87;;;10.77;;
14849;SDS011;7517;48.400;11.770;2023-02-12T03:17:23;13.67;;;10.33;;
14849;SDS011;7517;48.400;11.770;2023-02-12T03:19:59;15.27;;;10.47;;
14849;SDS011;7517;48.400;11.770;2023-02-12T03:22:34;16.60;;;11.27;;
14849;SDS011;7517;48.400;11.770;2023-02-12T03:25:08;14.53;;;10.07;;
14849;SDS011;7517;48.400;11.770;2023-02-12T03:27:42;13.87;;;10.93;;
14849;SDS011;7517;48.400;11.770;2023-02-12T03:30:14;14.90;;;11.00;;
14849;SDS011;7517;48.400;11.770;2023-02-12T03:32:45;14.47;;;11.00;;
14849;SDS011;7517;48.400;11.770;2023-02-12T03:35:22;14.67;;;10.27;;
14849;SDS011;7517;48.400;11.770;2023-02-12T03:37:59;15.13;;;11.10;;
14849;SDS011;7517;48.400;11.770;2023-02-12T03:40:39;14.47;;;10.83;;
14849;SDS011;7517;48.400;11.770;2023-02-12T03:43:18;15.10;;;11.20;;
14849;SDS011;7517;48.400;11.770;2023-02-12T03:45:54;17.83;;;11.07;;
14849;SDS011;7517;48.400;11.770;2023-02-12T03:48:31;15.80;;;11.40;;
14849;SDS011;7517;48.400;11.770;2023-02-12T03:51:09;15.97;;;11.13;;
14849;SDS011;7517;48.400;11.770;2023-02-12T03:53:45;15.87;;;11.40;;
14849;SDS011;7517;48.400;11.770;2023-02-12T03:56:14;15.27;;;11.47;;
14849;SDS011;7517;48.400;11.770;2023-02-12T03:58:49;16.20;;;11.33;;
14849;SDS011;7517;48.400;11.770;2023-02-12T04:01:16;14.63;;;11.47;;
14849;SDS011;7517;48.400;11.770;2023-02-12T04:03:45;17.03;;;11.93;;
14849;SDS011;7517;48.400;11.770;2023-02-12T04:06:20;15.13;;;11.73;;
14849;SDS011;7517;48.400;11.770;2023-02-12T04:08:51;14.57;;;11.43;;
14849;SDS011;7517;48.400;11.770;2023-02-12T04:11:24;15.87;;;11.87;;
14849;SDS011;7517;48.400;11.770;2023-02-12T04:14:07;15.57;;;11.53;;
14849;SDS011;7517;48.400;11.770;2023-02-12T04:16:50;14.47;;;10.87;;
14849;SDS011;7517;48.400;11.770;2023-02-12T04:19:29;14.73;;;10.73;;
14849;SDS011;7517;48.400;11.770;2023-02-12T04:22:10;15.23;;;11.40;;
14849;SDS011;7517;48.400;11.770;2023-02-12T04:24:57;16.63;;;11.80;;
14849;SDS011;7517;48.400;11.770;2023-02-12T04:27:36;15.80;;;11.60;;
14849;SDS011;7517;48.400;11.770;2023-02-12T04:30:17;16.90;;;11.97;;
14849;SDS011;7517;48.400;11.770;2023-02-12T04:32:51;15.53;;;11.30;;
14849;SDS011;7517;48.400;11.770;2023-02-12T04:35:28;17.30;;;11.63;;
14849;SDS011;7517;48.400;11.770;2023-02-12T04:38:03;19.03;;;13.03;;
14849;SDS011;7517;48.400;11.770;2023-02-12T04:40:37;16.40;;;12.30;;
14849;SDS011;7517;48.400;11.770;2023-02-12T04:43:08;16.93;;;12.70;;
14849;SDS011;7517;48.400;11.770;2023-02-12T04:45:36;17.93;;;12.50;;
14849;SDS011;7517;48.400;11.770;2023-02-12T04:48:05;16.47;;;12.10;;
14849;SDS011;7517;48.400;11.770;2023-02-12T04:50:37;16.80;;;12.33;;
14849;SDS011;7517;48.400;11.770;2023-02-12T04:53:10;17.90;;;12.53;;
14849;SDS011;7517;48.400;11.770;2023-02-12T04:55:37;17.80;;;12.60;;
14849;SDS011;7517;48.400;11.770;2023-02-12T04:58:05;17.70;;;13.20;;
14849;SDS011;7517;48.400;11.770;2023-02-12T05:00:33;18.27;;;12.07;;
14849;SDS011;7517;48.400;11.770;2023-02-12T05:03:01;19.17;;;12.83;;
14849;SDS011;7517;48.400;11.770;2023-02-12T05:05:28;20.50;;;12.70;;
14849;SDS011;7517;48.400;11.770;2023-02-12T05:07:58;17.33;;;12.47;;
14849;SDS011;7517;48.400;11.770;2023-02-12T05:10:25;16.93;;;12.20;;
14849;SDS011;7517;48.400;11.770;2023-02-12T05:12:53;19.30;;;13.17;;
14849;SDS011;7517;48.400;11.770;2023-02-12T05:15:21;16.50;;;11.93;;
14849;SDS011;7517;48.400;11.770;2023-02-12T05:17:48;18.83;;;12.57;;
14849;SDS011;7517;48.400;11.770;2023-02-12T05:20:18;19.47;;;13.93;;
14849;SDS011;7517;48.400;11.770;2023-02-12T05:22:45;16.57;;;12.30;;
14849;SDS011;7517;48.400;11.770;2023-02-12T05:25:20;19.47;;;13.70;;
14849;SDS011;7517;48.400;11.770;2023-02-12T05:27:48;17.10;;;12.23;;
14849;SDS011;7517;48.400;11.770;2023-02-12T05:30:15;19.57;;;15.10;;
14849;SDS011;7517;48.400;11.770;2023-02-12T05:32:43;19.93;;;14.13;;
14849;SDS011;7517;48.400;11.770;2023-02-12T05:35:10;19.93;;;14.37;;
14849;SDS011;7517;48.400;11.770;2023-02-12T05:37:37;20.83;;;15.77;;
14849;SDS011;7517;48.400;11.770;2023-02-12T05:40:05;23.53;;;16.20;;
14849;SDS011;7517;48.400;11.770;2023-02-12T05:42:36;24.83;;;17.17;;
14849;SDS011;7517;48.400;11.770;2023-02-12T05:45:04;21.53;;;16.17;;
14849;SDS011;7517;48.400;11.770;2023-02-12T05:47:32;26.03;;;16.47;;
14849;SDS011;7517;48.400;11.770;2023-02-12T05:50:00;22.30;;;15.30;;
14849;SDS011;7517;48.400;11.770;2023-02-12T05:52:27;19.50;;;14.53;;
14849;SDS011;7517;48.400;11.770;2023-02-12T05:54:55;22.90;;;14.90;;
14849;SDS011;7517;48.400;11.770;2023-02-12T05:57:22;19.57;;;14.20;;
14849;SDS011;7517;48.400;11.770;2023-02-12T05:59:52;23.20;;;15.33;;
14849;SDS011;7517;48.400;11.770;2023-02-12T06:02:20;20.47;;;14.20;;
14849;SDS011;7517;48.400;11.770;2023-02-12T06:04:47;19.50;;;14.97;;
14849;SDS011;7517;48.400;11.770;2023-02-12T06:07:14;19.73;;;13.47;;
14849;SDS011;7517;48.400;11.770;2023-02-12T06:09:41;21.70;;;13.47;;
14849;SDS011;7517;48.400;11.770;2023-02-12T06:12:09;20.33;;;14.10;;
14849;SDS011;7517;48.400;11.770;2023-02-12T06:14:39;19.73;;;12.87;;
14849;SDS011;7517;48.400;11.770;2023-02-12T06:17:08;19.23;;;13.50;;
14849;SDS011;7517;48.400;11.770;2023-02-12T06:19:36;19.90;;;12.87;;
14849;SDS011;7517;48.400;11.770;2023-02-12T06:22:03;18.67;;;13.87;;
14849;SDS011;7517;48.400;11.770;2023-02-12T06:24:31;19.90;;;14.10;;
14849;SDS011;7517;48.400;11.770;2023-02-12T06:26:59;20.13;;;13.73;;
14849;SDS011;7517;48.400;11.770;2023-02-12T06:29:26;18.83;;;13.37;;
14849;SDS011;7517;48.400;11.770;2023-02-12T06:31:54;18.77;;;13.27;;
14849;SDS011;7517;48.400;11.770;2023-02-12T06:34:23;19.57;;;13.47;;
14849;SDS011;7517;48.400;11.770;2023-02-12T06:36:53;19.77;;;13.40;;
14849;SDS011;7517;48.400;11.770;2023-02-12T06:39:20;20.17;;;13.90;;
14849;SDS011;7517;48.400;11.770;2023-02-12T06:41:47;19.17;;;14.33;;
14849;SDS011;7517;48.400;11.770;2023-02-12T06:44:15;21.07;;;15.70;;
14849;SDS011;7517;48.400;11.770;2023-02-12T06:46:42;20.73;;;15.47;;
14849;SDS011;7517;48.400;11.770;2023-02-12T06:49:09;24.57;;;15.07;;
14849;SDS011;7517;48.400;11.770;2023-02-12T06:51:40;21.80;;;15.03;;
14849;SDS011;7517;48.400;11.770;2023-02-12T06:54:11;22.07;;;13.57;;
14849;SDS011;7517;48.400;11.770;2023-02-12T06:56:40;20.03;;;14.60;;
14849;SDS011;7517;48.400;11.770;2023-02-12T06:59:09;24.13;;;13.80;;
14849;SDS011;7517;48.400;11.770;2023-02-12T07:01:40;21.53;;;14.50;;
14849;SDS011;7517;48.400;11.770;2023-02-12T07:04:08;19.87;;;14.00;;
14849;SDS011;7517;48.400;11.770;2023-02-12T07:06:36;19.70;;;13.67;;
14849;SDS011;7517;48.400;11.770;2023-02-12T07:09:05;19.90;;;14.50;;
14849;SDS011;7517;48.400;11.770;2023-02-12T07:11:33;19.00;;;13.73;;
14849;SDS011;7517;48.400;11.770;2023-02-12T07:14:02;20.03;;;14.80;;
14849;SDS011;7517;48.400;11.770;2023-02-12T07:16:29;19.97;;;14.63;;
14849;SDS011;7517;48.400;11.770;2023-02-12T07:18:56;23.43;;;15.03;;
14849;SDS011;7517;48.400;11.770;2023-02-12T07:21:23;21.17;;;14.43;;
14849;SDS011;7517;48.400;11.770;2023-02-12T07:23:51;23.10;;;15.63;;
14849;SDS011;7517;48.400;11.770;2023-02-12T07:26:20;22.53;;;14.83;;
14849;SDS011;7517;48.400;11.770;2023-02-12T07:28:47;21.87;;;15.40;;
14849;SDS011;7517;48.400;11.770;2023-02-12T07:31:17;23.17;;;15.47;;
14849;SDS011;7517;48.400;11.770;2023-02-12T07:33:47;23.77;;;15.33;;
14849;SDS011;7517;48.400;11.770;2023-02-12T07:36:18;23.20;;;15.37;;
14849;SDS011;7517;48.400;11.770;2023-02-12T07:38:46;21.97;;;14.73;;
14849;SDS011;7517;48.400;11.770;2023-02-12T07:41:14;23.43;;;15.30;;
14849;SDS011;7517;48.400;11.770;2023-02-12T07:43:45;22.77;;;15.80;;
14849;SDS011;7517;48.400;11.770;2023-02-12T07:46:15;26.37;;;16.47;;
14849;SDS011;7517;48.400;11.770;2023-02-12T07:48:46;23.33;;;15.83;;
14849;SDS011;7517;48.400;11.770;2023-02-12T07:51:17;24.90;;;16.83;;
14849;SDS011;7517;48.400;11.770;2023-02-12T07:53:44;24.50;;;15.27;;
14849;SDS011;7517;48.400;11.770;2023-02-12T07:56:13;25.97;;;16.47;;
14849;SDS011;7517;48.400;11.770;2023-02-12T07:58:46;28.03;;;20.20;;
14849;SDS011;7517;48.400;11.770;2023-02-12T08:01:17;31.83;;;22.87;;
14849;SDS011;7517;48.400;11.770;2023-02-12T08:03:47;36.87;;;24.90;;
14849;SDS011;7517;48.400;11.770;2023-02-12T08:06:17;34.67;;;22.67;;
14849;SDS011;7517;48.400;11.770;2023-02-12T08:08:49;35.50;;;25.60;;
14849;SDS011;7517;48.400;11.770;2023-02-12T08:11:17;30.33;;;21.33;;
14849;SDS011;7517;48.400;11.770;2023-02-12T08:13:47;37.87;;;26.47;;
14849;SDS011;7517;48.400;11.770;2023-02-12T08:16:15;36.30;;;24.97;;
14849;SDS011;7517;48.400;11.770;2023-02-12T08:18:45;27.50;;;18.90;;
14849;SDS011;7517;48.400;11.770;2023-02-12T08:21:14;23.90;;;16.77;;
14849;SDS011;7517;48.400;11.770;2023-02-12T08:23:44;24.00;;;16.43;;
14849;SDS011;7517;48.400;11.770;2023-02-12T08:26:15;23.03;;;15.50;;
14849;SDS011;7517;48.400;11.770;2023-02-12T08:28:47;23.43;;;16.00;;
14849;SDS011;7517;48.400;11.770;2023-02-12T08:31:19;22.13;;;16.10;;
14849;SDS011;7517;48.400;11.770;2023-02-12T08:33:50;24.10;;;16.43;;
14849;SDS011;7517;48.400;11.770;2023-02-12T08:36:20;21.80;;;15.77;;
14849;SDS011;7517;48.400;11.770;2023-02-12T08:38:49;21.07;;;14.83;;
14849;SDS011;7517;48.400;11.770;2023-02-12T08:41:17;21.13;;;14.97;;
14849;SDS011;7517;48.400;11.770;2023-02-12T08:43:49;22.87;;;14.73;;
14849;SDS011;7517;48.400;11.770;2023-02-12T08:46:20;23.20;;;16.17;;
14849;SDS011;7517;48.400;11.770;2023-02-12T08:48:51;22.83;;;15.47;;
14849;SDS011;7517;48.400;11.770;2023-02-12T08:51:21;20.73;;;14.23;;
14849;SDS011;7517;48.400;11.770;2023-02-12T08:53:51;20.80;;;14.80;;
14849;SDS011;7517;48.400;11.770;2023-02-12T08:56:22;22.77;;;14.77;;
14849;SDS011;7517;48.400;11.770;2023-02-12T08:58:53;20.07;;;13.67;;
14849;SDS011;7517;48.400;11.770;2023-02-12T09:01:21;22.33;;;13.90;;
14849;SDS011;7517;48.400;11.770;2023-02-12T09:03:51;22.53;;;14.87;;
14849;SDS011;7517;48.400;11.770;2023-02-12T09:06:20;22.07;;;14.83;;
14849;SDS011;7517;48.400;11.770;2023-02-12T09:08:50;21.90;;;15.53;;
14849;SDS011;7517;48.400;11.770;2023-02-12T09:11:19;21.20;;;15.50;;
14849;SDS011;7517;48.400;11.770;2023-02-12T09:13:57;21.70;;;15.00;;
14849;SDS011;7517;48.400;11.770;2023-02-12T09:16:28;19.37;;;13.77;;
14849;SDS011;7517;48.400;11.770;2023-02-12T09:21:56;23.10;;;14.63;;
14849;SDS011;7517;48.400;11.770;2023-02-12T09:24:24;20.73;;;14.37;;
14849;SDS011;7517;48.400;11.770;2023-02-12T09:26:55;19.87;;;13.17;;
14849;SDS011;7517;48.400;11.770;2023-02-12T09:29:36;21.17;;;14.27;;
14849;SDS011;7517;48.400;11.770;2023-02-12T09:32:04;19.53;;;13.70;;
14849;SDS011;7517;48.400;11.770;2023-02-12T09:34:33;20.93;;;14.77;;
14849;SDS011;7517;48.400;11.770;2023-02-12T09:37:01;20.10;;;13.47;;
14849;SDS011;7517;48.400;11.770;2023-02-12T09:39:29;24.27;;;13.37;;
14849;SDS011;7517;48.400;11.770;2023-02-12T09:42:03;20.00;;;13.60;;
14849;SDS011;7517;48.400;11.770;2023-02-12T09:45:11;20.43;;;13.83;;
14849;SDS011;7517;48.400;11.770;2023-02-12T09:47:46;21.13;;;14.37;;
14849;SDS011;7517;48.400;11.770;2023-02-12T09:50:33;19.40;;;13.30;;
14849;SDS011;7517;48.400;11.770;2023-02-12T09:53:11;17.33;;;13.13;;
14849;SDS011;7517;48.400;11.770;2023-02-12T09:55:42;21.30;;;14.67;;
14849;SDS011;7517;48.400;11.770;2023-02-12T09:58:11;20.40;;;14.37;;
14849;SDS011;7517;48.400;11.770;2023-02-12T10:00:47;19.83;;;13.80;;
14849;SDS011;7517;48.400;11.770;2023-02-12T10:03:15;18.20;;;13.23;;
14849;SDS011;7517;48.400;11.770;2023-02-12T10:05:44;19.33;;;12.27;;
14849;SDS011;7517;48.400;11.770;2023-02-12T10:08:31;16.63;;;12.17;;
14849;SDS011;7517;48.400;11.770;2023-02-12T10:11:19;14.90;;;10.77;;
14849;SDS011;7517;48.400;11.770;2023-02-12T10:14:13;15.40;;;11.33;;
14849;SDS011;7517;48.400;11.770;2023-02-12T10:17:11;15.47;;;10.73;;
14849;SDS011;7517;48.400;11.770;2023-02-12T10:19:53;17.17;;;11.80;;
14849;SDS011;7517;48.400;11.770;2023-02-12T10:25:29;16.13;;;11.60;;
14849;SDS011;7517;48.400;11.770;2023-02-12T10:28:10;16.90;;;10.73;;
14849;SDS011;7517;48.400;11.770;2023-02-12T10:30:43;12.47;;;8.90;;
14849;SDS011;7517;48.400;11.770;2023-02-12T10:33:23;11.20;;;8.83;;
14849;SDS011;7517;48.400;11.770;2023-02-12T10:35:55;11.93;;;8.87;;
14849;SDS011;7517;48.400;11.770;2023-02-12T10:38:33;14.10;;;10.27;;
14849;SDS011;7517;48.400;11.770;2023-02-12T10:41:05;14.27;;;10.17;;
14849;SDS011;7517;48.400;11.770;2023-02-12T10:43:33;12.53;;;9.07;;
14849;SDS011;7517;48.400;11.770;2023-02-12T10:46:00;13.43;;;9.20;;
14849;SDS011;7517;48.400;11.770;2023-02-12T10:48:30;12.70;;;8.97;;
14849;SDS011;7517;48.400;11.770;2023-02-12T10:51:10;12.50;;;8.30;;
14849;SDS011;7517;48.400;11.770;2023-02-12T10:54:13;8.13;;;6.77;;
14849;SDS011;7517;48.400;11.770;2023-02-12T10:57:07;9.43;;;7.17;;
14849;SDS011;7517;48.400;11.770;2023-02-12T10:59:46;13.10;;;9.03;;
14849;SDS011;7517;48.400;11.770;2023-02-12T11:02:19;20.97;;;12.77;;
14849;SDS011;7517;48.400;11.770;2023-02-12T11:04:55;22.03;;;14.00;;
14849;SDS011;7517;48.400;11.770;2023-02-12T11:07:24;22.17;;;14.10;;
14849;SDS011;7517;48.400;11.770;2023-02-12T11:09:54;22.33;;;13.63;;
14849;SDS011;7517;48.400;11.770;2023-02-12T11:12:25;21.47;;;14.07;;
14849;SDS011;7517;48.400;11.770;2023-02-12T11:15:00;20.90;;;14.27;;
14849;SDS011;7517;48.400;11.770;2023-02-12T11:17:39;20.67;;;13.53;;
14849;SDS011;7517;48.400;11.770;2023-02-12T11:20:22;19.03;;;12.47;;
14849;SDS011;7517;48.400;11.770;2023-02-12T11:22:54;19.73;;;12.17;;
14849;SDS011;7517;48.400;11.770;2023-02-12T11:25:26;17.23;;;11.83;;
14849;SDS011;7517;48.400;11.770;2023-02-12T11:28:11;17.93;;;11.37;;
14849;SDS011;7517;48.400;11.770;2023-02-12T11:30:47;14.93;;;10.07;;
14849;SDS011;7517;48.400;11.770;2023-02-12T11:33:22;13.83;;;9.33;;
14849;SDS011;7517;48.400;11.770;2023-02-12T11:35:55;14.73;;;10.30;;
14849;SDS011;7517;48.400;11.770;2023-02-12T11:38:27;11.90;;;8.73;;
14849;SDS011;7517;48.400;11.770;2023-02-12T11:41:01;12.87;;;8.77;;
14849;SDS011;7517;48.400;11.770;2023-02-12T11:43:34;13.33;;;9.47;;
14849;SDS011;7517;48.400;11.770;2023-02-12T11:46:04;12.67;;;8.90;;
14849;SDS011;7517;48.400;11.770;2023-02-12T11:48:34;11.97;;;8.63;;
14849;SDS011;7517;48.400;11.770;2023-02-12T11:51:07;13.67;;;10.03;;
14849;SDS011;7517;48.400;11.770;2023-02-12T11:53:46;12.30;;;9.27;;
14849;SDS011;7517;48.400;11.770;2023-02-12T11:56:20;15.70;;;10.40;;
14849;SDS011;7517;48.400;11.770;2023-02-12T11:58:47;15.93;;;10.47;;
14849;SDS011;7517;48.400;11.770;2023-02-12T12:01:17;15.27;;;10.90;;
14849;SDS011;7517;48.400;11.770;2023-02-12T12:03:52;15.90;;;11.03;;
14849;SDS011;7517;48.400;11.770;2023-02-12T12:06:32;15.43;;;9.90;;
14849;SDS011;7517;48.400;11.770;2023-02-12T12:09:10;14.87;;;10.70;;
14849;SDS011;7517;48.400;11.770;2023-02-12T12:11:46;13.50;;;10.20;;
14849;SDS011;7517;48.400;11.770;2023-02-12T12:14:26;16.17;;;10.33;;
14849;SDS011;7517;48.400;11.770;2023-02-12T12:16:58;14.30;;;10.10;;
14849;SDS011;7517;48.400;11.770;2023-02-12T12:19:51;14.37;;;10.00;;
14849;SDS011;7517;48.400;11.770;2023-02-12T12:22:43;16.57;;;10.40;;
14849;SDS011;7517;48.400;11.770;2023-02-12T12:25:20;15.27;;;10.40;;
14849;SDS011;7517;48.400;11.770;2023-02-12T12:27:56;14.07;;;9.77;;
14849;SDS011;7517;48.400;11.770;2023-02-12T12:30:37;15.73;;;10.17;;
14849;SDS011;7517;48.400;11.770;2023-02-12T12:33:32;15.70;;;10.50;;
14849;SDS011;7517;48.400;11.770;2023-02-12T12:39:19;14.33;;;9.83;;
14849;SDS011;7517;48.400;11.770;2023-02-12T12:42:12;14.13;;;10.10;;
14849;SDS011;7517;48.400;11.770;2023-02-12T12:45:24;11.77;;;8.40;;
14849;SDS011;7517;48.400;11.770;2023-02-12T12:48:11;12.37;;;8.83;;
14849;SDS011;7517;48.400;11.770;2023-02-12T12:50:58;14.37;;;9.37;;
14849;SDS011;7517;48.400;11.770;2023-02-12T12:53:43;12.30;;;8.97;;
14849;SDS011;7517;48.400;11.770;2023-02-12T12:56:30;14.63;;;10.57;;
14849;SDS011;7517;48.400;11.770;2023-02-12T12:59:20;13.53;;;9.60;;
14849;SDS011;7517;48.400;11.770;2023-02-12T13:05:48;11.27;;;8.30;;
14849;SDS011;7517;48.400;11.770;2023-02-12T13:11:34;10.13;;;7.83;;
14849;SDS011;7517;48.400;11.770;2023-02-12T13:14:21;9.77;;;7.90;;
14849;SDS011;7517;48.400;11.770;2023-02-12T13:17:04;11.77;;;7.30;;
14849;SDS011;7517;48.400;11.770;2023-02-12T13:19:48;10.90;;;8.13;;
14849;SDS011;7517;48.400;11.770;2023-02-12T13:22:26;10.63;;;8.07;;
14849;SDS011;7517;48.400;11.770;2023-02-12T13:25:04;10.90;;;7.70;;
14849;SDS011;7517;48.400;11.770;2023-02-12T13:27:53;10.37;;;8.03;;
14849;SDS011;7517;48.400;11.770;2023-02-12T13:30:25;11.13;;;8.17;;
14849;SDS011;7517;48.400;11.770;2023-02-12T13:33:03;9.93;;;7.53;;
14849;SDS011;7517;48.400;11.770;2023-02-12T13:35:40;12.13;;;8.57;;
14849;SDS011;7517;48.400;11.770;2023-02-12T13:38:14;11.70;;;9.37;;
14849;SDS011;7517;48.400;11.770;2023-02-12T13:40:48;14.23;;;9.47;;
14849;SDS011;7517;48.400;11.770;2023-02-12T13:43:34;14.10;;;9.70;;
14849;SDS011;7517;48.400;11.770;2023-02-12T13:46:24;11.90;;;8.90;;
14849;SDS011;7517;48.400;11.770;2023-02-12T13:49:09;11.87;;;9.07;;
14849;SDS011;7517;48.400;11.770;2023-02-12T13:51:50;13.60;;;9.60;;
14849;SDS011;7517;48.400;11.770;2023-02-12T13:54:35;12.13;;;9.03;;
14849;SDS011;7517;48.400;11.770;2023-02-12T13:57:17;13.33;;;9.23;;
14849;SDS011;7517;48.400;11.770;2023-02-12T13:59:48;14.50;;;10.77;;
14849;SDS011;7517;48.400;11.770;2023-02-12T14:02:26;13.37;;;9.30;;
14849;SDS011;7517;48.400;11.770;2023-02-12T14:05:14;12.57;;;8.67;;
14849;SDS011;7517;48.400;11.770;2023-02-12T14:08:03;11.73;;;8.53;;
14849;SDS011;7517;48.400;11.770;2023-02-12T14:10:34;11.60;;;8.10;;
14849;SDS011;7517;48.400;11.770;2023-02-12T14:13:12;9.77;;;7.83;;
14849;SDS011;7517;48.400;11.770;2023-02-12T14:15:48;9.10;;;7.07;;
14849;SDS011;7517;48.400;11.770;2023-02-12T14:18:31;10.70;;;7.33;;
14849;SDS011;7517;48.400;11.770;2023-02-12T14:36:12;9.53;;;7.43;;
14849;SDS011;7517;48.400;11.770;2023-02-12T14:38:56;11.23;;;7.83;;
14849;SDS011;7517;48.400;11.770;2023-02-12T14:41:26;11.20;;;8.27;;
14849;SDS011;7517;48.400;11.770;2023-02-12T14:47:13;12.27;;;8.37;;
14849;SDS011;7517;48.400;11.770;2023-02-12T14:50:25;12.33;;;8.97;;
14849;SDS011;7517;48.400;11.770;2023-02-12T14:53:03;14.20;;;9.10;;
14849;SDS011;7517;48.400;11.770;2023-02-12T14:55:45;13.03;;;9.20;;
14849;SDS011;7517;48.400;11.770;2023-02-12T14:58:15;16.93;;;9.50;;
14849;SDS011;7517;48.400;11.770;2023-02-12T15:00:46;13.37;;;9.30;;
14849;SDS011;7517;48.400;11.770;2023-02-12T15:03:31;13.23;;;8.93;;
14849;SDS011;7517;48.400;11.770;2023-02-12T15:06:10;14.47;;;8.77;;
14849;SDS011;7517;48.400;11.770;2023-02-12T15:08:44;13.17;;;8.63;;
14849;SDS011;7517;48.400;11.770;2023-02-12T15:11:20;13.00;;;8.67;;
14849;SDS011;7517;48.400;11.770;2023-02-12T15:13:59;13.60;;;9.00;;
14849;SDS011;7517;48.400;11.770;2023-02-12T15:16:37;11.63;;;8.50;;
14849;SDS011;7517;48.400;11.770;2023-02-12T15:19:27;13.47;;;8.43;;
14849;SDS011;7517;48.400;11.770;2023-02-12T15:22:19;12.83;;;8.23;;
14849;SDS011;7517;48.400;11.770;2023-02-12T15:24:50;10.70;;;7.93;;
14849;SDS011;7517;48.400;11.770;2023-02-12T15:27:18;13.53;;;8.93;;
14849;SDS011;7517;48.400;11.770;2023-02-12T15:29:48;11.70;;;8.00;;
14849;SDS011;7517;48.400;11.770;2023-02-12T15:32:20;11.90;;;8.63;;
14849;SDS011;7517;48.400;11.770;2023-02-12T15:34:50;12.97;;;9.03;;
14849;SDS011;7517;48.400;11.770;2023-02-12T15:37:22;12.33;;;8.57;;
14849;SDS011;7517;48.400;11.770;2023-02-12T15:39:57;14.47;;;9.20;;
14849;SDS011;7517;48.400;11.770;2023-02-12T15:42:28;12.90;;;8.83;;
14849;SDS011;7517;48.400;11.770;2023-02-12T15:45:06;14.27;;;8.53;;
14849;SDS011;7517;48.400;11.770;2023-02-12T15:47:53;11.87;;;8.20;;